Time;durP1;ratioP1;P1;durP2;ratioP2;P2;SDS_P1;SDS_P2;PMS_P1;PMS_P2;Temp;Humidity;BMP_temperature;BMP_pressure;BME280_temperature;BME280_humidity;BME280_pressure;Samples;Min_cycle;Max_cycle;Signal;HPM_P1;HPM_P2
2024/01/03 00:00:28;;;;;;;9.47;3.30;;;;;;;;;;5015517;28;20203;-68
2024/01/03 00:02:55;;;;;;;14.43;3.43;;;;;;;;;;5015821;28;20774;-68
2024/01/03 00:05:23;;;;;;;11.43;2.70;;;;;;;;;;5016036;28;20708;-68
2024/01/03 00:07:49;;;;;;;9.53;2.20;;;;;;;;;;5015726;28;20179;-68
2024/01/03 00:10:21;;;;;;;8.57;2.83;;;;;;;;;;5016764;28;20176;-68
2024/01/03 00:12:47;;;;;;;12.03;3.77;;;;;;;;;;5015330;28;20690;-68
2024/01/03 00:15:32;;;;;;;7.87;1.70;;;;;;;;;;5022225;28;20190;-68
2024/01/03 00:17:58;;;;;;;14.73;3.30;;;;;;;;;;5023397;28;20654;-68
2024/01/03 00:20:24;;;;;;;16.40;3.60;;;;;;;;;;5017023;28;20187;-68
2024/01/03 00:22:50;;;;;;;11.17;3.00;;;;;;;;;;5017098;28;20212;-67
2024/01/03 00:25:17;;;;;;;9.33;2.57;;;;;;;;;;5017464;28;20234;-68
2024/01/03 00:27:43;;;;;;;17.10;3.03;;;;;;;;;;5017737;28;20176;-68
2024/01/03 00:30:10;;;;;;;10.83;2.90;;;;;;;;;;5015914;28;20187;-68
2024/01/03 00:32:36;;;;;;;9.43;3.40;;;;;;;;;;5016406;28;20678;-69
2024/01/03 00:35:02;;;;;;;14.93;3.30;;;;;;;;;;5014252;28;20194;-69
2024/01/03 00:37:29;;;;;;;12.87;3.77;;;;;;;;;;5016583;28;20180;-68
2024/01/03 00:39:56;;;;;;;4.87;2.60;;;;;;;;;;5015181;28;20184;-67
2024/01/03 00:42:22;;;;;;;7.50;3.10;;;;;;;;;;5016638;28;20207;-68
2024/01/03 00:44:48;;;;;;;14.00;3.60;;;;;;;;;;5014916;28;20203;-69
2024/01/03 00:47:15;;;;;;;12.00;3.47;;;;;;;;;;5016971;28;20569;-69
2024/01/03 00:49:41;;;;;;;8.20;2.77;;;;;;;;;;5014839;28;20641;-69
2024/01/03 00:52:07;;;;;;;10.43;2.60;;;;;;;;;;5014961;28;20267;-68
2024/01/03 00:54:34;;;;;;;14.57;3.37;;;;;;;;;;5016334;28;20307;-68
2024/01/03 00:57:00;;;;;;;8.10;2.13;;;;;;;;;;5014383;28;20187;-69
2024/01/03 00:59:27;;;;;;;12.87;3.37;;;;;;;;;;5015793;28;20263;-69
2024/01/03 01:01:54;;;;;;;8.47;3.23;;;;;;;;;;5014384;28;20184;-68
2024/01/03 01:04:20;;;;;;;9.70;2.33;;;;;;;;;;5015462;28;20196;-68
2024/01/03 01:06:46;;;;;;;9.93;2.53;;;;;;;;;;5015241;28;20203;-69
2024/01/03 01:09:12;;;;;;;7.57;2.53;;;;;;;;;;5021325;28;20187;-69
2024/01/03 01:11:38;;;;;;;9.47;2.10;;;;;;;;;;5014572;28;20667;-69
2024/01/03 01:14:04;;;;;;;9.47;2.23;;;;;;;;;;5014008;28;20269;-68
2024/01/03 01:16:30;;;;;;;15.27;3.30;;;;;;;;;;5013990;28;20183;-68
2024/01/03 01:18:56;;;;;;;12.07;2.70;;;;;;;;;;5015409;28;20180;-69
2024/01/03 01:21:22;;;;;;;14.00;3.57;;;;;;;;;;5015378;28;20219;-69
2024/01/03 01:23:47;;;;;;;13.93;3.10;;;;;;;;;;5013810;28;20269;-69
2024/01/03 01:26:13;;;;;;;14.93;2.90;;;;;;;;;;5015157;28;20219;-69
2024/01/03 01:28:39;;;;;;;13.50;3.20;;;;;;;;;;5015155;28;20183;-69
2024/01/03 01:31:05;;;;;;;9.87;2.33;;;;;;;;;;5013714;28;20184;-69
2024/01/03 01:33:31;;;;;;;10.20;2.30;;;;;;;;;;5015058;28;20230;-69
2024/01/03 01:35:57;;;;;;;14.63;3.20;;;;;;;;;;5015018;28;20175;-69
2024/01/03 01:38:23;;;;;;;12.73;3.40;;;;;;;;;;5015045;28;20242;-69
2024/01/03 01:40:50;;;;;;;14.80;3.17;;;;;;;;;;5013892;28;20182;-69
2024/01/03 01:43:16;;;;;;;14.20;3.57;;;;;;;;;;5015028;28;20223;-69
2024/01/03 01:45:42;;;;;;;19.07;4.13;;;;;;;;;;5015368;28;20253;-69
2024/01/03 01:48:08;;;;;;;11.77;3.17;;;;;;;;;;5014636;28;20263;-69
2024/01/03 01:50:35;;;;;;;15.87;3.17;;;;;;;;;;5014795;28;20179;-69
2024/01/03 01:53:01;;;;;;;12.20;3.47;;;;;;;;;;5013489;28;20196;-69
2024/01/03 01:55:27;;;;;;;17.47;3.10;;;;;;;;;;5014988;28;20176;-69
2024/01/03 01:57:53;;;;;;;10.63;2.83;;;;;;;;;;5013225;28;20650;-69
2024/01/03 02:00:19;;;;;;;16.90;3.10;;;;;;;;;;5013591;28;20638;-68
2024/01/03 02:02:47;;;;;;;12.67;2.73;;;;;;;;;;5022177;28;20226;-68
2024/01/03 02:05:13;;;;;;;13.33;3.37;;;;;;;;;;5013453;28;20211;-68
2024/01/03 02:07:39;;;;;;;12.57;3.37;;;;;;;;;;5013360;28;20708;-68
2024/01/03 02:10:06;;;;;;;9.43;2.30;;;;;;;;;;5012985;28;20199;-69
2024/01/03 02:12:32;;;;;;;11.83;2.97;;;;;;;;;;5014508;28;20249;-69
2024/01/03 02:14:57;;;;;;;12.43;3.13;;;;;;;;;;5012793;28;20187;-68
2024/01/03 02:17:24;;;;;;;11.47;3.13;;;;;;;;;;5012949;28;20187;-68
2024/01/03 02:19:50;;;;;;;12.33;3.63;;;;;;;;;;5014095;28;20185;-68
2024/01/03 02:22:16;;;;;;;7.37;2.60;;;;;;;;;;5013823;28;20233;-68
2024/01/03 02:24:42;;;;;;;12.73;2.57;;;;;;;;;;5014255;28;20620;-68
2024/01/03 02:27:08;;;;;;;10.67;2.60;;;;;;;;;;5014384;28;20184;-68
2024/01/03 02:29:34;;;;;;;13.30;3.37;;;;;;;;;;5012675;28;20180;-69
2024/01/03 02:32:00;;;;;;;6.80;2.63;;;;;;;;;;5012637;28;20219;-68
2024/01/03 02:34:27;;;;;;;4.20;1.53;;;;;;;;;;5013853;28;20310;-69
2024/01/03 02:36:53;;;;;;;11.03;3.00;;;;;;;;;;5012520;28;20670;-69
2024/01/03 02:39:19;;;;;;;13.87;2.87;;;;;;;;;;5018062;28;20290;-70
2024/01/03 02:41:45;;;;;;;10.50;2.30;;;;;;;;;;5022384;28;20172;-69
2024/01/03 02:44:11;;;;;;;12.67;2.50;;;;;;;;;;5021374;28;20548;-69
2024/01/03 02:46:37;;;;;;;13.20;2.77;;;;;;;;;;5015109;28;20682;-69
2024/01/03 02:49:03;;;;;;;11.90;3.00;;;;;;;;;;5015525;28;20206;-69
2024/01/03 02:51:29;;;;;;;18.80;4.17;;;;;;;;;;5013914;28;20198;-69
2024/01/03 02:53:55;;;;;;;6.63;2.40;;;;;;;;;;5015178;28;20682;-70
2024/01/03 02:56:21;;;;;;;11.70;2.83;;;;;;;;;;5019422;28;20187;-70
2024/01/03 02:58:47;;;;;;;11.90;3.00;;;;;;;;;;5012710;28;20194;-69
2024/01/03 03:01:13;;;;;;;7.50;1.93;;;;;;;;;;5012792;28;20184;-69
2024/01/03 03:03:39;;;;;;;9.30;2.57;;;;;;;;;;5013344;28;20199;-69
2024/01/03 03:06:05;;;;;;;8.23;2.10;;;;;;;;;;5013501;28;20199;-69
2024/01/03 03:08:31;;;;;;;15.87;2.50;;;;;;;;;;5012534;28;20187;-70
2024/01/03 03:10:57;;;;;;;12.10;3.20;;;;;;;;;;5013430;28;20186;-70
2024/01/03 03:13:24;;;;;;;10.30;2.47;;;;;;;;;;5012034;28;20195;-69
2024/01/03 03:15:50;;;;;;;12.07;2.43;;;;;;;;;;5013402;28;20677;-69
2024/01/03 03:18:16;;;;;;;8.77;2.40;;;;;;;;;;5012187;28;20664;-70
2024/01/03 03:20:42;;;;;;;8.40;2.40;;;;;;;;;;5013400;28;20258;-69
2024/01/03 03:23:08;;;;;;;8.67;2.33;;;;;;;;;;5012167;28;20763;-70
2024/01/03 03:25:34;;;;;;;6.73;2.37;;;;;;;;;;5013349;28;20203;-70
2024/01/03 03:28:00;;;;;;;6.70;2.23;;;;;;;;;;5012199;28;20273;-70
2024/01/03 03:30:26;;;;;;;4.03;1.83;;;;;;;;;;5013813;28;20263;-70
2024/01/03 03:32:52;;;;;;;11.10;2.13;;;;;;;;;;5013143;28;20282;-70
2024/01/03 03:35:18;;;;;;;10.20;1.97;;;;;;;;;;5013075;28;20270;-70
2024/01/03 03:37:44;;;;;;;7.37;2.10;;;;;;;;;;5013442;28;20226;-69
2024/01/03 03:40:10;;;;;;;8.00;2.13;;;;;;;;;;5011911;28;20183;-69
2024/01/03 03:42:36;;;;;;;8.23;2.20;;;;;;;;;;5013203;28;20759;-69
2024/01/03 03:45:02;;;;;;;7.37;2.20;;;;;;;;;;5011844;28;20192;-69
2024/01/03 03:47:28;;;;;;;5.47;2.07;;;;;;;;;;5012455;28;20210;-69
2024/01/03 03:49:54;;;;;;;11.07;2.20;;;;;;;;;;5020499;28;20179;-69
2024/01/03 03:52:20;;;;;;;8.93;2.63;;;;;;;;;;5011870;28;20204;-69
2024/01/03 03:54:46;;;;;;;12.87;2.37;;;;;;;;;;5011784;28;20230;-69
2024/01/03 03:57:12;;;;;;;9.17;2.60;;;;;;;;;;5011715;28;20214;-69
2024/01/03 03:59:38;;;;;;;8.77;2.53;;;;;;;;;;5011673;28;20179;-69
2024/01/03 04:02:04;;;;;;;9.40;2.37;;;;;;;;;;5012366;28;20551;-69
2024/01/03 04:04:30;;;;;;;7.13;1.97;;;;;;;;;;5011648;28;20183;-69
2024/01/03 04:06:56;;;;;;;11.57;2.40;;;;;;;;;;5011503;28;20208;-69
2024/01/03 04:09:24;;;;;;;8.67;2.27;;;;;;;;;;5013046;28;20203;-69
2024/01/03 04:11:50;;;;;;;8.40;2.07;;;;;;;;;;5015617;28;20214;-69
2024/01/03 04:14:16;;;;;;;8.63;2.10;;;;;;;;;;5015089;28;20597;-69
2024/01/03 04:16:42;;;;;;;10.50;2.07;;;;;;;;;;5016697;28;20688;-69
2024/01/03 04:19:08;;;;;;;7.87;2.30;;;;;;;;;;5016846;28;20245;-69
2024/01/03 04:21:34;;;;;;;4.30;1.63;;;;;;;;;;5015284;28;20537;-69
2024/01/03 04:24:00;;;;;;;10.97;2.67;;;;;;;;;;5016253;28;20219;-69
2024/01/03 04:26:27;;;;;;;6.37;2.17;;;;;;;;;;5016264;28;20639;-70
2024/01/03 04:28:53;;;;;;;4.60;2.10;;;;;;;;;;5014921;28;20323;-69
2024/01/03 04:31:19;;;;;;;9.20;1.90;;;;;;;;;;5015044;28;20328;-69
2024/01/03 04:33:45;;;;;;;9.73;2.00;;;;;;;;;;5014682;28;20298;-69
2024/01/03 04:36:11;;;;;;;7.70;2.10;;;;;;;;;;5016181;28;20175;-69
2024/01/03 04:38:37;;;;;;;4.83;1.83;;;;;;;;;;5016689;28;20199;-69
2024/01/03 04:41:03;;;;;;;6.27;2.20;;;;;;;;;;5020293;28;20188;-69
2024/01/03 04:43:29;;;;;;;6.30;2.10;;;;;;;;;;5018050;28;20218;-70
2024/01/03 04:45:55;;;;;;;7.17;2.40;;;;;;;;;;5015865;28;20250;-69
2024/01/03 04:48:21;;;;;;;5.77;2.03;;;;;;;;;;5015889;28;20176;-70
2024/01/03 04:50:47;;;;;;;5.87;2.70;;;;;;;;;;5016510;28;20179;-69
2024/01/03 04:53:13;;;;;;;6.67;1.77;;;;;;;;;;5016195;28;20760;-69
2024/01/03 04:55:39;;;;;;;4.23;2.10;;;;;;;;;;5016158;28;20677;-70
2024/01/03 04:58:05;;;;;;;7.40;2.23;;;;;;;;;;5015763;28;20180;-69
2024/01/03 05:00:33;;;;;;;4.87;1.87;;;;;;;;;;5016072;28;20238;-68
2024/01/03 05:02:59;;;;;;;9.27;2.57;;;;;;;;;;5016258;28;20242;-69
2024/01/03 05:05:25;;;;;;;10.50;1.63;;;;;;;;;;5015463;28;20207;-71
2024/01/03 05:07:51;;;;;;;7.70;1.63;;;;;;;;;;5016209;28;20211;-69
2024/01/03 05:10:17;;;;;;;6.70;2.60;;;;;;;;;;5015637;28;20235;-69
2024/01/03 05:12:43;;;;;;;6.30;2.70;;;;;;;;;;5014086;28;20733;-70
2024/01/03 05:15:09;;;;;;;8.77;1.77;;;;;;;;;;5014959;28;20175;-69
2024/01/03 05:17:35;;;;;;;4.97;1.60;;;;;;;;;;5013772;28;20187;-69
2024/01/03 05:20:01;;;;;;;7.70;2.23;;;;;;;;;;5014911;28;20181;-70
2024/01/03 05:22:27;;;;;;;8.77;2.07;;;;;;;;;;5014209;28;20199;-70
2024/01/03 05:24:56;;;;;;;6.90;1.50;;;;;;;;;;5013512;28;20180;-69
2024/01/03 05:27:23;;;;;;;8.33;2.23;;;;;;;;;;5013518;28;20179;-69
2024/01/03 05:29:49;;;;;;;7.57;1.77;;;;;;;;;;5014876;28;20175;-69
2024/01/03 05:32:15;;;;;;;5.23;1.77;;;;;;;;;;5014841;28;20692;-71
2024/01/03 05:34:41;;;;;;;6.67;2.03;;;;;;;;;;5019194;28;20180;-69
2024/01/03 05:37:07;;;;;;;5.60;1.47;;;;;;;;;;5045170;23;20222;-70
2024/01/03 05:39:33;;;;;;;5.07;1.40;;;;;;;;;;5035070;28;20237;-69
2024/01/03 05:41:59;;;;;;;2.83;1.10;;;;;;;;;;5034201;28;20179;-70
2024/01/03 05:44:25;;;;;;;3.30;1.60;;;;;;;;;;5034744;28;20214;-69
2024/01/03 05:46:51;;;;;;;3.80;1.73;;;;;;;;;;5036306;28;20215;-70
2024/01/03 05:49:17;;;;;;;2.77;1.67;;;;;;;;;;5034542;28;20179;-70
2024/01/03 05:51:43;;;;;;;5.17;1.40;;;;;;;;;;5035412;28;20254;-69
2024/01/03 05:54:09;;;;;;;4.53;1.83;;;;;;;;;;5036247;28;20179;-68
2024/01/03 05:56:37;;;;;;;4.33;1.60;;;;;;;;;;5033388;28;20202;-64
2024/01/03 05:59:03;;;;;;;7.33;2.27;;;;;;;;;;5034312;28;20179;-64
2024/01/03 06:01:29;;;;;;;1.53;1.20;;;;;;;;;;5032879;28;20179;-66
2024/01/03 06:03:55;;;;;;;3.63;1.80;;;;;;;;;;5032736;28;20233;-63
2024/01/03 06:06:21;;;;;;;3.80;1.63;;;;;;;;;;5033899;28;20207;-65
2024/01/03 06:08:47;;;;;;;8.17;2.17;;;;;;;;;;5034049;28;20183;-66
2024/01/03 06:11:13;;;;;;;5.33;1.93;;;;;;;;;;5034084;28;20221;-66
2024/01/03 06:13:39;;;;;;;7.57;2.07;;;;;;;;;;5034302;28;20183;-65
2024/01/03 06:16:06;;;;;;;3.87;1.67;;;;;;;;;;5034669;28;20184;-65
2024/01/03 06:18:31;;;;;;;5.30;1.83;;;;;;;;;;5034877;28;20191;-65
2024/01/03 06:20:57;;;;;;;10.53;2.67;;;;;;;;;;5032781;28;20270;-65
2024/01/03 06:23:24;;;;;;;4.00;1.50;;;;;;;;;;5034002;28;20266;-66
2024/01/03 06:25:50;;;;;;;6.50;2.13;;;;;;;;;;5034139;28;20214;-66
2024/01/03 06:28:16;;;;;;;4.20;1.90;;;;;;;;;;5033452;28;20202;-66
2024/01/03 06:30:43;;;;;;;5.60;1.63;;;;;;;;;;5032688;28;20275;-67
2024/01/03 06:33:09;;;;;;;4.10;1.73;;;;;;;;;;5033563;28;20176;-66
2024/01/03 06:35:35;;;;;;;6.80;2.13;;;;;;;;;;5033920;28;20185;-67
2024/01/03 06:38:03;;;;;;;6.37;2.17;;;;;;;;;;5049668;28;20221;-66
2024/01/03 06:40:29;;;;;;;3.63;1.80;;;;;;;;;;5036058;28;20185;-67
2024/01/03 06:42:55;;;;;;;3.20;1.77;;;;;;;;;;5053285;28;20190;-66
2024/01/03 06:45:21;;;;;;;6.27;2.00;;;;;;;;;;5052919;28;20216;-66
2024/01/03 06:47:47;;;;;;;7.73;2.87;;;;;;;;;;5052903;28;20575;-67
2024/01/03 06:50:13;;;;;;;6.77;2.30;;;;;;;;;;5053055;28;20234;-67
2024/01/03 06:52:39;;;;;;;5.90;2.30;;;;;;;;;;5052911;28;20225;-67
2024/01/03 06:55:06;;;;;;;7.13;2.40;;;;;;;;;;5052805;28;20175;-67
2024/01/03 06:57:32;;;;;;;4.03;1.83;;;;;;;;;;5052782;28;20243;-66
2024/01/03 06:59:58;;;;;;;8.80;2.23;;;;;;;;;;5052859;28;20179;-64
2024/01/03 07:02:24;;;;;;;8.00;2.37;;;;;;;;;;5052557;28;20660;-67
2024/01/03 07:04:50;;;;;;;6.50;1.83;;;;;;;;;;5052656;28;20170;-67
2024/01/03 07:07:17;;;;;;;9.37;2.07;;;;;;;;;;5034719;28;20218;-67
2024/01/03 07:09:43;;;;;;;6.70;2.50;;;;;;;;;;5052394;28;20256;-67
2024/01/03 07:12:09;;;;;;;7.83;2.30;;;;;;;;;;5034892;28;20572;-67
2024/01/03 07:14:35;;;;;;;11.80;2.60;;;;;;;;;;5052326;28;20258;-66
2024/01/03 07:17:01;;;;;;;10.07;2.90;;;;;;;;;;5052327;28;20230;-68
2024/01/03 07:19:27;;;;;;;4.13;2.07;;;;;;;;;;5052879;28;20551;-67
2024/01/03 07:21:52;;;;;;;12.53;2.63;;;;;;;;;;5034539;28;20613;-67
2024/01/03 07:24:18;;;;;;;8.40;2.50;;;;;;;;;;5052550;28;20182;-66
2024/01/03 07:26:44;;;;;;;10.47;2.60;;;;;;;;;;5034257;28;20210;-67
2024/01/03 07:29:10;;;;;;;15.50;3.17;;;;;;;;;;5052737;28;20171;-67
2024/01/03 07:31:36;;;;;;;14.83;3.13;;;;;;;;;;5052415;28;20175;-67
2024/01/03 07:34:02;;;;;;;17.27;2.97;;;;;;;;;;5052164;28;20648;-65
2024/01/03 07:36:28;;;;;;;11.73;3.00;;;;;;;;;;5051942;28;20299;-67
2024/01/03 07:38:57;;;;;;;15.47;3.37;;;;;;;;;;5052428;28;20174;-67
2024/01/03 07:41:23;;;;;;;13.27;2.90;;;;;;;;;;5034367;28;20201;-67
2024/01/03 07:43:49;;;;;;;17.07;3.67;;;;;;;;;;5052094;28;20182;-67
2024/01/03 07:46:16;;;;;;;16.57;2.97;;;;;;;;;;5037538;28;20213;-67
2024/01/03 07:48:42;;;;;;;12.97;2.77;;;;;;;;;;5056781;28;20170;-66
2024/01/03 07:51:08;;;;;;;8.73;1.97;;;;;;;;;;5057870;28;20344;-66
2024/01/03 07:53:34;;;;;;;5.93;1.80;;;;;;;;;;5058009;28;20181;-64
2024/01/03 07:56:00;;;;;;;8.87;2.07;;;;;;;;;;5039573;28;20280;-64
2024/01/03 07:58:26;;;;;;;4.40;1.33;;;;;;;;;;5057367;28;20209;-68
2024/01/03 08:00:52;;;;;;;5.70;1.50;;;;;;;;;;5038840;28;20190;-67
2024/01/03 08:03:18;;;;;;;5.53;1.47;;;;;;;;;;5057141;28;20193;-67
2024/01/03 08:05:44;;;;;;;2.90;1.30;;;;;;;;;;5057481;28;20202;-66
2024/01/03 08:08:10;;;;;;;3.00;1.20;;;;;;;;;;5057192;28;20198;-66
2024/01/03 08:10:36;;;;;;;2.67;1.20;;;;;;;;;;5057806;28;20570;-67
2024/01/03 08:13:02;;;;;;;3.50;1.13;;;;;;;;;;5057321;28;20175;-65
2024/01/03 08:15:28;;;;;;;2.13;1.30;;;;;;;;;;5056194;28;20190;-66
2024/01/03 08:17:54;;;;;;;4.57;1.47;;;;;;;;;;5056722;28;20205;-66
2024/01/03 08:20:20;;;;;;;4.03;1.63;;;;;;;;;;5056942;28;20675;-64
2024/01/03 08:22:46;;;;;;;3.90;1.23;;;;;;;;;;5056997;28;20183;-65
2024/01/03 08:25:12;;;;;;;2.67;1.43;;;;;;;;;;5057920;28;20182;-65
2024/01/03 08:27:39;;;;;;;4.30;1.60;;;;;;;;;;5057548;28;20209;-65
2024/01/03 08:30:05;;;;;;;3.60;1.50;;;;;;;;;;5038841;28;20228;-66
2024/01/03 08:32:31;;;;;;;2.47;1.10;;;;;;;;;;5057046;28;20677;-65
2024/01/03 08:34:57;;;;;;;3.37;1.50;;;;;;;;;;5039243;28;20190;-63
2024/01/03 08:37:23;;;;;;;5.03;1.63;;;;;;;;;;5039810;28;20305;-67
2024/01/03 08:39:49;;;;;;;3.30;1.27;;;;;;;;;;5041374;28;20197;-65
2024/01/03 08:42:15;;;;;;;3.67;1.63;;;;;;;;;;5041806;28;20182;-66
2024/01/03 08:44:41;;;;;;;3.90;1.60;;;;;;;;;;5040142;28;20178;-66
2024/01/03 08:47:07;;;;;;;3.10;1.53;;;;;;;;;;5039040;28;20218;-65
2024/01/03 08:49:33;;;;;;;5.00;1.50;;;;;;;;;;5038140;28;20194;-67
2024/01/03 08:52:00;;;;;;;4.07;1.87;;;;;;;;;;5038912;28;20190;-67
2024/01/03 08:54:29;;;;;;;3.30;1.43;;;;;;;;;;5039895;28;20252;-67
2024/01/03 08:56:55;;;;;;;5.40;1.87;;;;;;;;;;5037177;28;20585;-67
2024/01/03 08:59:21;;;;;;;4.37;1.83;;;;;;;;;;5055350;28;20228;-68
2024/01/03 09:01:51;;;;;;;6.57;1.70;;;;;;;;;;5036994;28;20178;-68
2024/01/03 09:04:17;;;;;;;5.57;1.73;;;;;;;;;;5054986;28;20189;-68
2024/01/03 09:06:43;;;;;;;5.57;1.80;;;;;;;;;;5055440;28;20571;-67
2024/01/03 09:09:09;;;;;;;5.70;1.93;;;;;;;;;;5054721;28;20639;-67
2024/01/03 09:11:36;;;;;;;10.33;2.10;;;;;;;;;;5036814;28;20277;-67
2024/01/03 09:14:02;;;;;;;4.73;1.60;;;;;;;;;;5054693;28;20609;-68
2024/01/03 09:16:30;;;;;;;10.53;2.20;;;;;;;;;;5054827;28;20205;-67
2024/01/03 09:18:56;;;;;;;14.03;2.93;;;;;;;;;;5036775;28;20220;-69
2024/01/03 09:21:23;;;;;;;8.40;2.13;;;;;;;;;;5055053;28;20174;-67
2024/01/03 09:23:50;;;;;;;7.13;2.13;;;;;;;;;;5036609;28;20186;-67
2024/01/03 09:26:17;;;;;;;11.17;2.50;;;;;;;;;;5054582;28;20251;-67
2024/01/03 09:28:43;;;;;;;6.53;2.30;;;;;;;;;;5054775;28;20204;-68
2024/01/03 09:31:09;;;;;;;15.07;3.50;;;;;;;;;;5054567;28;20704;-68
2024/01/03 09:33:35;;;;;;;9.43;2.90;;;;;;;;;;5054555;28;20174;-67
2024/01/03 09:36:01;;;;;;;12.47;2.70;;;;;;;;;;5036639;28;20231;-67
2024/01/03 09:38:27;;;;;;;12.03;2.27;;;;;;;;;;5054400;28;20292;-68
2024/01/03 09:40:53;;;;;;;12.50;2.97;;;;;;;;;;5054437;28;20193;-69
2024/01/03 09:43:19;;;;;;;5.37;2.53;;;;;;;;;;5036393;28;20178;-67
2024/01/03 09:45:46;;;;;;;15.50;2.97;;;;;;;;;;5054259;28;20328;-67
2024/01/03 09:48:12;;;;;;;11.73;2.93;;;;;;;;;;5054458;28;20194;-68
2024/01/03 09:50:38;;;;;;;14.33;2.77;;;;;;;;;;5054405;28;20179;-67
2024/01/03 09:53:08;;;;;;;9.70;2.57;;;;;;;;;;5053985;28;20197;-67
2024/01/03 09:55:35;;;;;;;12.03;2.50;;;;;;;;;;5053809;28;20178;-67
2024/01/03 09:58:01;;;;;;;8.57;2.53;;;;;;;;;;5053678;28;20202;-67
2024/01/03 10:00:30;;;;;;;10.87;2.60;;;;;;;;;;5053548;28;20262;-66
2024/01/03 10:03:02;;;;;;;14.57;3.23;;;;;;;;;;5035585;28;20670;-68
2024/01/03 10:05:28;;;;;;;10.23;3.03;;;;;;;;;;5035436;28;20530;-66
2024/01/03 10:07:55;;;;;;;9.60;2.53;;;;;;;;;;5034796;28;20673;-67
2024/01/03 10:10:32;;;;;;;7.13;2.20;;;;;;;;;;5053160;28;20181;-67
2024/01/03 10:13:13;;;;;;;9.47;2.67;;;;;;;;;;5053326;28;20217;-67
2024/01/03 10:15:39;;;;;;;9.80;2.50;;;;;;;;;;5053823;28;20566;-67
2024/01/03 10:18:09;;;;;;;7.83;2.50;;;;;;;;;;5053389;28;20220;-66
2024/01/03 10:20:35;;;;;;;11.37;2.97;;;;;;;;;;5035430;28;20315;-67
2024/01/03 10:23:05;;;;;;;6.23;2.37;;;;;;;;;;5035400;28;20213;-67
2024/01/03 10:25:31;;;;;;;4.87;2.00;;;;;;;;;;5053654;28;20336;-65
2024/01/03 10:28:01;;;;;;;7.20;2.53;;;;;;;;;;5035495;28;20264;-66
2024/01/03 10:30:27;;;;;;;10.90;2.87;;;;;;;;;;5053150;28;20206;-67
2024/01/03 10:33:03;;;;;;;7.90;2.37;;;;;;;;;;5035269;28;20182;-66
2024/01/03 10:35:35;;;;;;;10.97;3.37;;;;;;;;;;5052962;28;20182;-68
2024/01/03 10:38:02;;;;;;;12.83;2.20;;;;;;;;;;5034772;28;20688;-67
2024/01/03 10:40:32;;;;;;;9.83;2.90;;;;;;;;;;5052966;28;20183;-67
2024/01/03 10:42:59;;;;;;;14.07;2.50;;;;;;;;;;5034973;28;20194;-66
2024/01/03 10:45:26;;;;;;;13.50;2.87;;;;;;;;;;5053276;28;20653;-66
2024/01/03 10:47:52;;;;;;;7.90;2.17;;;;;;;;;;5034756;28;20268;-67
2024/01/03 10:50:18;;;;;;;9.23;2.30;;;;;;;;;;5052684;28;20181;-66
2024/01/03 10:52:45;;;;;;;7.40;2.13;;;;;;;;;;5052634;28;20178;-67
2024/01/03 10:55:16;;;;;;;10.07;2.50;;;;;;;;;;5034794;28;20269;-67
2024/01/03 10:57:46;;;;;;;5.00;2.10;;;;;;;;;;5052604;28;20717;-66
2024/01/03 11:00:18;;;;;;;6.10;2.50;;;;;;;;;;5052588;28;20175;-66
2024/01/03 11:03:07;;;;;;;9.20;2.63;;;;;;;;;;5035277;28;20236;-66
2024/01/03 11:05:38;;;;;;;5.73;2.40;;;;;;;;;;5043405;28;20343;-65
2024/01/03 11:08:07;;;;;;;6.50;2.10;;;;;;;;;;5035769;28;20202;-65
2024/01/03 11:10:53;;;;;;;7.07;2.23;;;;;;;;;;5035161;28;20213;-65
2024/01/03 11:13:33;;;;;;;10.03;2.57;;;;;;;;;;5052744;28;20178;-65
2024/01/03 11:16:00;;;;;;;7.97;2.40;;;;;;;;;;5052549;28;20632;-65
2024/01/03 11:18:43;;;;;;;9.87;3.37;;;;;;;;;;5034541;28;20703;-66
2024/01/03 11:21:26;;;;;;;8.97;2.77;;;;;;;;;;5052078;28;20210;-66
2024/01/03 11:23:53;;;;;;;8.80;2.80;;;;;;;;;;5053024;28;20163;-65
2024/01/03 11:26:19;;;;;;;8.53;2.50;;;;;;;;;;5052184;28;20206;-65
2024/01/03 11:28:51;;;;;;;2.43;1.90;;;;;;;;;;5052403;28;20641;-66
2024/01/03 11:31:36;;;;;;;10.57;2.63;;;;;;;;;;5052383;28;20193;-66
2024/01/03 11:34:04;;;;;;;10.20;3.10;;;;;;;;;;5052523;28;20177;-65
2024/01/03 11:36:47;;;;;;;10.83;2.67;;;;;;;;;;5052579;28;20214;-66
2024/01/03 11:39:50;;;;;;;11.40;2.93;;;;;;;;;;5052269;28;20174;-66
2024/01/03 11:42:20;;;;;;;9.77;3.10;;;;;;;;;;5035222;28;20181;-66
2024/01/03 11:44:46;;;;;;;12.57;3.20;;;;;;;;;;5052234;28;20197;-66
2024/01/03 11:47:12;;;;;;;11.67;2.73;;;;;;;;;;5034282;28;20245;-66
2024/01/03 11:49:38;;;;;;;14.10;3.30;;;;;;;;;;5052382;28;20179;-65
2024/01/03 11:52:04;;;;;;;15.50;3.27;;;;;;;;;;5052096;28;20253;-66
2024/01/03 11:54:33;;;;;;;9.23;3.23;;;;;;;;;;5052602;28;20266;-66
2024/01/03 11:57:07;;;;;;;7.83;2.37;;;;;;;;;;5052838;28;20221;-69
2024/01/03 11:59:33;;;;;;;7.53;2.00;;;;;;;;;;5052627;28;20304;-70
2024/01/03 12:01:59;;;;;;;10.67;2.87;;;;;;;;;;5052416;28;20544;-70
2024/01/03 12:04:25;;;;;;;12.43;2.60;;;;;;;;;;5052152;28;20187;-69
2024/01/03 12:06:58;;;;;;;10.10;2.57;;;;;;;;;;5052424;28;20206;-69
2024/01/03 12:09:28;;;;;;;7.90;2.30;;;;;;;;;;5052104;28;20221;-69
2024/01/03 12:11:54;;;;;;;10.93;3.17;;;;;;;;;;5052637;28;20151;-68
2024/01/03 12:14:20;;;;;;;8.63;2.10;;;;;;;;;;5052027;28;20595;-69
2024/01/03 12:16:53;;;;;;;12.37;3.50;;;;;;;;;;5034112;28;20202;-70
2024/01/03 12:19:37;;;;;;;16.53;4.23;;;;;;;;;;5034660;28;20183;-68
2024/01/03 12:22:03;;;;;;;12.30;2.17;;;;;;;;;;5052712;28;20254;-68
2024/01/03 12:24:39;;;;;;;4.97;1.87;;;;;;;;;;5052226;28;20210;-69
2024/01/03 12:27:05;;;;;;;6.40;2.07;;;;;;;;;;5034026;28;20221;-69
2024/01/03 12:29:33;;;;;;;5.63;2.30;;;;;;;;;;5052704;28;20210;-68
2024/01/03 12:32:08;;;;;;;10.53;2.23;;;;;;;;;;5035454;28;20186;-68
2024/01/03 12:34:34;;;;;;;12.10;5.23;;;;;;;;;;5037879;28;20174;-66
2024/01/03 12:37:00;;;;;;;5.57;2.33;;;;;;;;;;5060433;28;20317;-67
2024/01/03 12:39:26;;;;;;;8.87;3.00;;;;;;;;;;5070484;28;20473;-69
2024/01/03 12:41:52;;;;;;;6.03;2.43;;;;;;;;;;5069883;28;20179;-69
2024/01/03 12:44:17;;;;;;;10.70;3.97;;;;;;;;;;5072093;28;20182;-68
2024/01/03 12:46:43;;;;;;;7.43;2.60;;;;;;;;;;5058755;28;20583;-70
2024/01/03 12:49:09;;;;;;;15.57;4.57;;;;;;;;;;5056456;28;20552;-70
2024/01/03 12:51:35;;;;;;;25.83;11.77;;;;;;;;;;5055989;28;20201;-71
2024/01/03 12:54:01;;;;;;;37.07;22.03;;;;;;;;;;5055375;28;20252;-71
2024/01/03 12:56:27;;;;;;;12.67;4.03;;;;;;;;;;5037648;28;20202;-71
2024/01/03 12:58:53;;;;;;;15.87;6.00;;;;;;;;;;5037603;28;20300;-69
2024/01/03 13:01:19;;;;;;;11.83;4.07;;;;;;;;;;5055225;28;20579;-70
2024/01/03 13:03:45;;;;;;;15.57;4.70;;;;;;;;;;5037085;28;20679;-70
2024/01/03 13:06:11;;;;;;;10.03;3.23;;;;;;;;;;5055618;28;20328;-64
2024/01/03 13:08:37;;;;;;;12.97;7.50;;;;;;;;;;5056172;28;20174;-64
2024/01/03 13:11:03;;;;;;;31.43;13.87;;;;;;;;;;5055787;28;20307;-66
2024/01/03 13:13:29;;;;;;;20.87;7.93;;;;;;;;;;5037030;28;20632;-66
2024/01/03 13:15:55;;;;;;;29.53;14.70;;;;;;;;;;5055040;28;20181;-66
2024/01/03 13:18:21;;;;;;;15.17;5.20;;;;;;;;;;5054719;28;20229;-67
2024/01/03 13:20:47;;;;;;;12.37;5.73;;;;;;;;;;5054401;28;20174;-66
2024/01/03 13:23:13;;;;;;;21.43;8.63;;;;;;;;;;5055315;28;20182;-64
2024/01/03 13:25:39;;;;;;;14.53;5.17;;;;;;;;;;5055334;28;20206;-67
2024/01/03 13:28:05;;;;;;;65.60;33.53;;;;;;;;;;5037560;28;20203;-66
2024/01/03 13:30:31;;;;;;;294.50;162.10;;;;;;;;;;5037395;28;20187;-67
2024/01/03 13:32:57;;;;;;;12.30;6.30;;;;;;;;;;5054435;28;20181;-67
2024/01/03 13:35:23;;;;;;;3.67;2.60;;;;;;;;;;5054515;28;20178;-67
2024/01/03 13:37:49;;;;;;;5.40;2.40;;;;;;;;;;5055958;28;20210;-67
2024/01/03 13:40:15;;;;;;;5.90;2.43;;;;;;;;;;5054778;28;20185;-67
2024/01/03 13:42:42;;;;;;;7.73;2.40;;;;;;;;;;5036689;28;20179;-66
2024/01/03 13:45:08;;;;;;;7.40;3.57;;;;;;;;;;5036666;28;20181;-67
2024/01/03 13:47:34;;;;;;;6.10;3.30;;;;;;;;;;5036090;28;20252;-65
2024/01/03 13:50:00;;;;;;;10.70;3.40;;;;;;;;;;5054072;28;20185;-65
2024/01/03 13:52:27;;;;;;;14.13;2.90;;;;;;;;;;5054493;28;20254;-68
2024/01/03 13:54:53;;;;;;;10.07;3.70;;;;;;;;;;5055339;28;20175;-67
2024/01/03 13:57:19;;;;;;;10.23;4.67;;;;;;;;;;5037458;28;20206;-66
2024/01/03 13:59:45;;;;;;;11.10;4.00;;;;;;;;;;5054699;28;20209;-67
2024/01/03 14:02:11;;;;;;;9.57;4.83;;;;;;;;;;5053849;28;20213;-68
2024/01/03 14:04:38;;;;;;;5.83;2.70;;;;;;;;;;5054910;28;20225;-66
2024/01/03 14:07:04;;;;;;;7.43;2.33;;;;;;;;;;5055109;28;20253;-66
2024/01/03 14:09:30;;;;;;;7.80;2.20;;;;;;;;;;5054524;28;20178;-67
2024/01/03 14:11:56;;;;;;;4.23;1.90;;;;;;;;;;5053805;28;20239;-67
2024/01/03 14:14:22;;;;;;;9.50;2.70;;;;;;;;;;5053393;28;20321;-66
2024/01/03 14:16:48;;;;;;;11.30;2.70;;;;;;;;;;5053749;28;20222;-66
2024/01/03 14:19:14;;;;;;;6.47;2.30;;;;;;;;;;5053477;28;20260;-67
2024/01/03 14:21:49;;;;;;;6.73;2.40;;;;;;;;;;5035401;28;20178;-67
2024/01/03 14:24:15;;;;;;;5.83;2.00;;;;;;;;;;5053155;28;20166;-66
2024/01/03 14:26:41;;;;;;;8.80;2.67;;;;;;;;;;5053170;28;20292;-67
2024/01/03 14:29:07;;;;;;;8.97;2.80;;;;;;;;;;5052923;28;20182;-67
2024/01/03 14:31:34;;;;;;;8.37;2.37;;;;;;;;;;5052939;28;20175;-67
2024/01/03 14:34:00;;;;;;;5.77;2.20;;;;;;;;;;5053150;28;20274;-67
2024/01/03 14:36:26;;;;;;;6.50;2.13;;;;;;;;;;5052973;28;20189;-65